GAP2381 RPVI-RPVM
Flight info
| Callsign | GAP2381 |
|---|---|
| Flight time | 0h 28m |
| Altitude | 17000 |
| Route | TADAG2N TADAG TADAG3P |
| Aircraft | DH8D/M-SDE2E3FGRY/H |
Departure
| Time | 2026-04-25 06:23 |
|---|---|
| Airport | Iloilo International Airport (RPVI) |
Arrival
| Time | 2026-04-25 06:51 |
|---|---|
| Airport | Mactan Cebu International Airport (RPVM) |
| Time | Latitude | Longitude | Altitude | Speed | Heading |
|---|---|---|---|---|---|
| 2026-04-25 06:12 | 10.83150 | 122.49643 | 177 ft | 0 kts | 110° |
| 2026-04-25 06:20 | 10.83146 | 122.49646 | 177 ft | 1 kts | 168° |
| 2026-04-25 06:20 | 10.83138 | 122.49633 | 177 ft | 4 kts | 255° |
| 2026-04-25 06:20 | 10.83124 | 122.49583 | 177 ft | 8 kts | 247° |
| 2026-04-25 06:20 | 10.83075 | 122.49543 | 177 ft | 9 kts | 199° |
| 2026-04-25 06:21 | 10.83026 | 122.49503 | 177 ft | 9 kts | 258° |
| 2026-04-25 06:21 | 10.83045 | 122.49435 | 177 ft | 10 kts | 289° |
| 2026-04-25 06:21 | 10.83072 | 122.49361 | 177 ft | 12 kts | 290° |
| 2026-04-25 06:21 | 10.83087 | 122.49283 | 177 ft | 6 kts | 254° |
| 2026-04-25 06:22 | 10.83076 | 122.49256 | 177 ft | 1 kts | 280° |
| 2026-04-25 06:22 | 10.83090 | 122.49256 | 177 ft | 3 kts | 24° |
| 2026-04-25 06:22 | 10.83303 | 122.49338 | 177 ft | 81 kts | 20° |
| 2026-04-25 06:22 | 10.84107 | 122.49635 | 246 ft | 151 kts | 22° |
| 2026-04-25 06:23 | 10.85148 | 122.50046 | 813 ft | 172 kts | 24° |
| 2026-04-25 06:23 | 10.86311 | 122.50494 | 1592 ft | 186 kts | 22° |
| 2026-04-25 06:23 | 10.87532 | 122.50938 | 2448 ft | 189 kts | 22° |
| 2026-04-25 06:23 | 10.88761 | 122.51380 | 3185 ft | 190 kts | 22° |
| 2026-04-25 06:24 | 10.90021 | 122.51837 | 3901 ft | 193 kts | 22° |
| 2026-04-25 06:24 | 10.91283 | 122.52296 | 4604 ft | 195 kts | 23° |
| 2026-04-25 06:24 | 10.92554 | 122.52789 | 5270 ft | 197 kts | 30° |
| 2026-04-25 06:24 | 10.93439 | 122.53798 | 5845 ft | 195 kts | 74° |
| 2026-04-25 06:25 | 10.93258 | 122.55132 | 6382 ft | 203 kts | 120° |
| 2026-04-25 06:25 | 10.92179 | 122.56061 | 6974 ft | 209 kts | 145° |
| 2026-04-25 06:25 | 10.90909 | 122.56795 | 7590 ft | 212 kts | 147° |
| 2026-04-25 06:25 | 10.89617 | 122.57523 | 8184 ft | 215 kts | 147° |
| 2026-04-25 06:26 | 10.88303 | 122.58254 | 8777 ft | 217 kts | 148° |
| 2026-04-25 06:26 | 10.86979 | 122.58987 | 9362 ft | 219 kts | 148° |
| 2026-04-25 06:26 | 10.85632 | 122.59727 | 9928 ft | 220 kts | 148° |
| 2026-04-25 06:26 | 10.84273 | 122.60473 | 10470 ft | 222 kts | 149° |
| 2026-04-25 06:27 | 10.82907 | 122.61220 | 11018 ft | 223 kts | 149° |
| 2026-04-25 06:27 | 10.81534 | 122.61970 | 11531 ft | 226 kts | 149° |
| 2026-04-25 06:27 | 10.80151 | 122.62726 | 12042 ft | 227 kts | 149° |
| 2026-04-25 06:27 | 10.78750 | 122.63490 | 12544 ft | 229 kts | 150° |
| 2026-04-25 06:28 | 10.77341 | 122.64257 | 13024 ft | 231 kts | 150° |
| 2026-04-25 06:28 | 10.75917 | 122.65032 | 13495 ft | 232 kts | 150° |
| 2026-04-25 06:28 | 10.74502 | 122.65803 | 13948 ft | 233 kts | 150° |
| 2026-04-25 06:28 | 10.73057 | 122.66588 | 14370 ft | 235 kts | 150° |
| 2026-04-25 06:29 | 10.71604 | 122.67377 | 14807 ft | 236 kts | 150° |
| 2026-04-25 06:29 | 10.70137 | 122.68173 | 15223 ft | 238 kts | 150° |
| 2026-04-25 06:29 | 10.68678 | 122.68967 | 15631 ft | 239 kts | 150° |
| 2026-04-25 06:29 | 10.67208 | 122.69765 | 16015 ft | 241 kts | 150° |
| 2026-04-25 06:30 | 10.65721 | 122.70572 | 16401 ft | 242 kts | 150° |
| 2026-04-25 06:30 | 10.64225 | 122.71384 | 16744 ft | 245 kts | 150° |
| 2026-04-25 06:30 | 10.62685 | 122.72222 | 16884 ft | 258 kts | 150° |
| 2026-04-25 06:30 | 10.61065 | 122.73106 | 16937 ft | 272 kts | 150° |
| 2026-04-25 06:31 | 10.59325 | 122.74058 | 16959 ft | 291 kts | 150° |
| 2026-04-25 06:31 | 10.57472 | 122.75073 | 16964 ft | 313 kts | 150° |
| 2026-04-25 06:31 | 10.55496 | 122.76150 | 16963 ft | 331 kts | 150° |
| 2026-04-25 06:31 | 10.53410 | 122.77289 | 16972 ft | 349 kts | 150° |
| 2026-04-25 06:32 | 10.51225 | 122.78480 | 16965 ft | 358 kts | 150° |
| 2026-04-25 06:32 | 10.49072 | 122.79747 | 16950 ft | 357 kts | 144° |
| 2026-04-25 06:32 | 10.47139 | 122.81354 | 16956 ft | 356 kts | 137° |
| 2026-04-25 06:32 | 10.45281 | 122.83001 | 16962 ft | 355 kts | 137° |
| 2026-04-25 06:33 | 10.43419 | 122.84656 | 16965 ft | 355 kts | 137° |
| 2026-04-25 06:33 | 10.41545 | 122.86321 | 16962 ft | 355 kts | 137° |
| 2026-04-25 06:33 | 10.39692 | 122.87965 | 16961 ft | 355 kts | 137° |
| 2026-04-25 06:33 | 10.37842 | 122.89603 | 16956 ft | 355 kts | 137° |
| 2026-04-25 06:34 | 10.35971 | 122.91257 | 16958 ft | 355 kts | 137° |
| 2026-04-25 06:34 | 10.34095 | 122.92911 | 16961 ft | 355 kts | 137° |
| 2026-04-25 06:34 | 10.32231 | 122.94556 | 16962 ft | 354 kts | 137° |
| 2026-04-25 06:34 | 10.30363 | 122.96201 | 16966 ft | 354 kts | 137° |
| 2026-04-25 06:35 | 10.28498 | 122.97845 | 16958 ft | 354 kts | 137° |
| 2026-04-25 06:35 | 10.26867 | 122.99681 | 16934 ft | 353 kts | 120° |
| 2026-04-25 06:35 | 10.26178 | 123.02031 | 16972 ft | 350 kts | 94° |
| 2026-04-25 06:35 | 10.26242 | 123.04511 | 16987 ft | 351 kts | 86° |
| 2026-04-25 06:36 | 10.26409 | 123.07000 | 16999 ft | 354 kts | 86° |
| 2026-04-25 06:36 | 10.26595 | 123.09497 | 17007 ft | 359 kts | 85° |
| 2026-04-25 06:36 | 10.26788 | 123.12011 | 17007 ft | 359 kts | 85° |
| 2026-04-25 06:36 | 10.26842 | 123.14545 | 16985 ft | 354 kts | 96° |
| 2026-04-25 06:37 | 10.26277 | 123.16945 | 16776 ft | 358 kts | 106° |
| 2026-04-25 06:37 | 10.25551 | 123.19366 | 16363 ft | 355 kts | 106° |
| 2026-04-25 06:37 | 10.24824 | 123.21759 | 15926 ft | 351 kts | 106° |
| 2026-04-25 06:37 | 10.24115 | 123.24093 | 15495 ft | 348 kts | 106° |
| 2026-04-25 06:38 | 10.23406 | 123.26435 | 15051 ft | 346 kts | 106° |
| 2026-04-25 06:38 | 10.22706 | 123.28754 | 14602 ft | 342 kts | 106° |
| 2026-04-25 06:38 | 10.22018 | 123.31042 | 14160 ft | 339 kts | 106° |
| 2026-04-25 06:38 | 10.21328 | 123.33336 | 13719 ft | 336 kts | 106° |
| 2026-04-25 06:39 | 10.20656 | 123.35574 | 13292 ft | 332 kts | 106° |
| 2026-04-25 06:39 | 10.19985 | 123.37808 | 12864 ft | 327 kts | 106° |
| 2026-04-25 06:39 | 10.19331 | 123.39990 | 12459 ft | 323 kts | 105° |
| 2026-04-25 06:39 | 10.18680 | 123.42162 | 12045 ft | 320 kts | 105° |
| 2026-04-25 06:40 | 10.18037 | 123.44309 | 11632 ft | 312 kts | 105° |
| 2026-04-25 06:40 | 10.17425 | 123.46356 | 11240 ft | 297 kts | 105° |
| 2026-04-25 06:40 | 10.16844 | 123.48293 | 10867 ft | 282 kts | 105° |
| 2026-04-25 06:40 | 10.16279 | 123.50166 | 10519 ft | 274 kts | 105° |
| 2026-04-25 06:41 | 10.15722 | 123.52014 | 10175 ft | 271 kts | 105° |
| 2026-04-25 06:41 | 10.15180 | 123.53816 | 9840 ft | 268 kts | 105° |
| 2026-04-25 06:41 | 10.14637 | 123.55624 | 9506 ft | 265 kts | 104° |
| 2026-04-25 06:41 | 10.14103 | 123.57400 | 9172 ft | 263 kts | 104° |
| 2026-04-25 06:42 | 10.13575 | 123.59160 | 8839 ft | 261 kts | 104° |
| 2026-04-25 06:42 | 10.13049 | 123.60910 | 8512 ft | 258 kts | 104° |
| 2026-04-25 06:42 | 10.12525 | 123.62655 | 8185 ft | 256 kts | 104° |
| 2026-04-25 06:42 | 10.12011 | 123.64369 | 7867 ft | 254 kts | 104° |
| 2026-04-25 06:43 | 10.11498 | 123.66077 | 7544 ft | 253 kts | 104° |
| 2026-04-25 06:43 | 10.10989 | 123.67773 | 7221 ft | 251 kts | 104° |
| 2026-04-25 06:43 | 10.10478 | 123.69473 | 6901 ft | 250 kts | 104° |
| 2026-04-25 06:43 | 10.09974 | 123.71152 | 6583 ft | 249 kts | 104° |
| 2026-04-25 06:44 | 10.09474 | 123.72818 | 6270 ft | 247 kts | 104° |
| 2026-04-25 06:44 | 10.09037 | 123.74518 | 5848 ft | 248 kts | 95° |
| 2026-04-25 06:44 | 10.09413 | 123.76155 | 5538 ft | 242 kts | 58° |
| 2026-04-25 06:44 | 10.10521 | 123.77419 | 5251 ft | 238 kts | 46° |
| 2026-04-25 06:45 | 10.11706 | 123.78580 | 4949 ft | 235 kts | 45° |
| 2026-04-25 06:45 | 10.12891 | 123.79723 | 4652 ft | 233 kts | 45° |
| 2026-04-25 06:45 | 10.14051 | 123.80840 | 4360 ft | 230 kts | 45° |
| 2026-04-25 06:45 | 10.15216 | 123.81963 | 4070 ft | 228 kts | 45° |
| 2026-04-25 06:46 | 10.16334 | 123.83056 | 3770 ft | 218 kts | 46° |
| 2026-04-25 06:46 | 10.17386 | 123.84112 | 3487 ft | 208 kts | 46° |
| 2026-04-25 06:46 | 10.18387 | 123.85119 | 3221 ft | 197 kts | 46° |
| 2026-04-25 06:46 | 10.19351 | 123.86095 | 2974 ft | 197 kts | 47° |
| 2026-04-25 06:47 | 10.20312 | 123.87067 | 2712 ft | 194 kts | 46° |
| 2026-04-25 06:47 | 10.21270 | 123.88030 | 2457 ft | 190 kts | 46° |
| 2026-04-25 06:47 | 10.22187 | 123.88953 | 2207 ft | 182 kts | 46° |
| 2026-04-25 06:47 | 10.23082 | 123.89861 | 1972 ft | 178 kts | 46° |
| 2026-04-25 06:48 | 10.23910 | 123.90691 | 1752 ft | 155 kts | 45° |
| 2026-04-25 06:48 | 10.24627 | 123.91412 | 1547 ft | 133 kts | 46° |
| 2026-04-25 06:48 | 10.25221 | 123.92015 | 1401 ft | 112 kts | 47° |
| 2026-04-25 06:48 | 10.25771 | 123.92596 | 1261 ft | 115 kts | 47° |
| 2026-04-25 06:49 | 10.26332 | 123.93179 | 1112 ft | 116 kts | 47° |
| 2026-04-25 06:49 | 10.26906 | 123.93771 | 963 ft | 118 kts | 46° |
| 2026-04-25 06:49 | 10.27499 | 123.94383 | 822 ft | 121 kts | 46° |
| 2026-04-25 06:49 | 10.28089 | 123.95000 | 698 ft | 123 kts | 47° |
| 2026-04-25 06:50 | 10.28711 | 123.95628 | 507 ft | 126 kts | 44° |
| 2026-04-25 06:50 | 10.29336 | 123.96241 | 309 ft | 124 kts | 46° |
| 2026-04-25 06:50 | 10.29956 | 123.96867 | 160 ft | 126 kts | 45° |
| 2026-04-25 06:50 | 10.30576 | 123.97492 | 39 ft | 123 kts | 44° |
| 2026-04-25 06:51 | 10.31047 | 123.97965 | 37 ft | 62 kts | 45° |
| 2026-04-25 06:51 | 10.31264 | 123.98183 | 37 ft | 28 kts | 45° |
| 2026-04-25 06:51 | 10.31359 | 123.98279 | 37 ft | 12 kts | 43° |
| 2026-04-25 06:51 | 10.31423 | 123.98289 | 37 ft | 9 kts | 331° |
| 2026-04-25 06:52 | 10.31481 | 123.98235 | 37 ft | 12 kts | 315° |
| 2026-04-25 06:52 | 10.31548 | 123.98164 | 37 ft | 13 kts | 314° |
| 2026-04-25 06:52 | 10.31612 | 123.98117 | 37 ft | 9 kts | 354° |
| 2026-04-25 06:52 | 10.31656 | 123.98140 | 37 ft | 6 kts | 40° |
| 2026-04-25 06:53 | 10.31690 | 123.98151 | 37 ft | 4 kts | 333° |
| 2026-04-25 06:53 | 10.31713 | 123.98130 | 37 ft | 2 kts | 313° |
| 2026-04-25 06:53 | 10.31719 | 123.98124 | 37 ft | 0 kts | 314° |